logo
Search for airport 
image banner adimage banner adimage banner ad
image banner ad

TUPJ - Roadtown/Terrance B. Lettsome (Tortola-B.V.I.)

Located in Roadtown, Virgin Islands British

ICAO - TUPJ, IATA - EIS

Data provided by Airmate  

General information

Coordinates: N18°26'44" W64°32'30"
Elevation is 16 feet MSL.
Magnetic variation is -13° East
View others Airports in (unassigned)

Operational data

Special qualification required
Current time UTC:
Current local time:
Weather
METAR: TUPJ 251800Z 13005KT 10SM SCT020 31/26 A2995 RMK Q1014 VIS16KM
TAF: TAF TUPJ 251700Z 2518/2618 12008KT 9999 SCT020
View NOTAMs / SUP AIP / TFR affecting this airport [VIEW]
Communications frequencies: [VIEW]

Runways:

RWY identifierQFULength (ft)Width (ft)SurfaceLDA (ft)
0761°464698ASP
25241°464698ASP

Airport contact information

Address: Roadtown Virgin Islands British

Satellite view of TUPJ